x

North Equatorial One- 470 Nm East Of Martinique (41040) Wave Buoy

4:50am - Sun 26th Feb 2017 All times are UTC.

  • Sig Wave height 7.2ft
  • Swell Direction
  • Peak Period 8s
  • Average Period 6s
  • Wind
    20mph, 25mph gusts
  • Sea Temp 80°f
  • Air Temp 78°f
  • Sea Pressure 1014.9mb

More Historic Weather Station data

Upgrade to MSW Pro to gain access to the past 30 days of data for over 8000 Wavebouys and Weather Stations around the globe.

Join Pro

Comparision Forecast

View Surf forecast
   
Sun 02/26 4:50am 7ft 8s 6s 20 25 mph 1014.9mb 80f 78f
3:50am 7.5ft 12s 6s 16 20 mph 1016mb 80f 77f
2:50am 8ft 12s 7s 20 22 mph 1016.1mb 80f 78f
1:50am 8ft 12s 6s 18 22 mph 1016.1mb 80f 78f
12:50am 8ft 12s 6s 20 22 mph 1015.7mb 80f 78f
Sat 02/25 11:50pm 7.5ft 12s 6s 20 22 mph 1015.3mb 80f 78f
10:50pm 7.5ft 11s 7s 18 22 mph 1014.5mb 80f 78f
9:50pm 8ft 13s 7s 18 22 mph 1014.3mb 80f 78f
8:50pm 7.5ft 12s 7s 18 22 mph 1014.2mb 80f 78f
7:50pm 7.5ft 13s 7s 16 20 mph 1014mb 80f 78f
6:50pm 8ft 13s 7s 18 20 mph 1013.9mb 80f 79f
5:50pm 7ft 13s 7s 18 20 mph 1014.2mb 80f 79f
4:50pm 8ft 12s 7s 18 20 mph 1014.6mb 80f 79f
3:50pm 7.5ft 13s 7s 18 22 mph 1015.3mb 80f 79f
2:50pm 7ft 13s 7s 18 20 mph 1016mb 80f 79f
1:50pm 7.5ft 13s 7s 16 20 mph 1016.2mb 80f 78f
12:50pm 8ft 13s 7s 16 20 mph 1015.8mb 80f 79f
11:50am 8.5ft 13s 7s 18 22 mph 1015.2mb 80f 79f
10:50am 8ft 13s 7s 18 22 mph 1014.5mb 80f 79f
9:50am 8ft 14s 7s 18 22 mph 1014mb 80f 78f
8:50am 9ft 13s 8s 20 22 mph 1013.2mb 80f 78f
7:50am 7.5ft 14s 7s 18 20 mph 1013mb 80f 78f
6:50am 9ft 13s 8s 18 20 mph 1012.8mb 80f 78f
5:50am 8.5ft 14s 8s 16 20 mph 1013.3mb 80f 79f
4:50am 8.5ft 14s 8s 18 20 mph 1013.7mb 80f 79f
3:50am 9ft 14s 8s 18 20 mph 1014.4mb 80f 79f
2:50am 8ft 13s 8s 18 20 mph 1014.9mb 80f 79f
1:50am 9ft 14s 9s 16 20 mph 1015mb 80f 79f
12:50am 8.5ft 14s 9s 16 20 mph 1014.7mb 80f 78f
Fri 02/24 11:50pm 9ft 14s 9s 13 16 mph 1014.7mb 80f 78f
10:50pm 10ft 14s 10s 9 11 mph 1014.2mb 80f 79f
9:50pm 9ft 12s 9s 9 11 mph 1014mb 80f 79f
8:50pm 9.5ft 13s 9s 9 11 mph 1013.7mb 80f 79f
7:50pm 8.5ft 15s 9s 9 11 mph 1013.5mb 81f 80f
6:50pm 9ft 11s 9s 9 11 mph 1013.3mb 80f 80f
5:50pm 8ft 11s 8s 9 11 mph 1013.6mb 81f 79f
4:50pm 7ft 12s 8s 11 13 mph 1014.3mb 80f 79f
3:50pm 7ft 11s 8s 9 13 mph 1015mb 80f 79f
2:50pm 6.5ft 11s 8s 9 11 mph 1015.8mb 80f 79f
1:50pm 5ft 12s 7s 9 11 mph 1016.2mb 80f 79f
12:50pm 5.5ft 8s 7s 9 11 mph 1016mb 80f 79f
11:50am 5ft 7s 7s 9 11 mph 1015.3mb 79f 79f
10:50am 5ft 8s 6s 7 9 mph 1014.4mb 79f 78f
9:50am 4.5ft 7s 6s 9
mph
1014mb 79f 78f
8:50am 4ft 7s 6s 9 11 mph 1013.4mb 79f 78f
7:50am 4.5ft 8s 6s 11 13 mph 1013.2mb 79f 78f
6:50am 4ft 8s 6s 11 13 mph 1013.3mb 79f 78f
5:50am 4ft 7s 6s 7 9 mph 1013.7mb 79f 78f
4:50am 3.5ft 8s 6s 9 11 mph 1014.1mb 79f 78f
3:50am 3.5ft 7s 6s 11
mph
1014.4mb 79f 78f
2:50am 4ft 8s 6s 11
mph
1014.6mb 79f 78f
1:50am 4ft 7s 6s 11 13 mph 1014.5mb 79f 78f
12:50am 4ft 7s 6s 7
mph
1014.4mb 80f 78f
Thu 02/23 11:50pm 3.5ft 7s 6s 4 7 mph 1014.1mb 80f 78f
10:50pm 4ft 7s 6s 7
mph
1013.4mb 80f 78f
9:50pm 4ft 7s 6s 2 4 mph 1013mb 80f 78f
8:50pm 4ft 8s 6s 2
mph
1012.4mb 80f 80f
7:50pm 4ft 7s 6s 4 7 mph 1012.1mb 80f 79f
6:50pm 4ft 8s 6s 9
mph
1012mb 80f 79f
5:50pm 4ft 7s 6s 9 11 mph 1012.4mb 80f 78f
4:50pm 4.5ft 8s 6s 9
mph
1013.1mb 80f 78f
3:50pm 4.5ft 7s 6s 7
mph
1013.6mb 80f 78f
2:50pm 4.5ft 7s 6s 7 9 mph 1014.3mb 80f 78f
1:50pm 4.5ft 8s 6s 9
mph
1014.7mb 79f 78f
12:50pm 4.5ft 7s 6s 7 9 mph 1014.2mb 79f 78f
11:50am 4.5ft 7s 6s 7 9 mph 1013.4mb 79f 78f
10:50am 4.5ft 8s 6s 7
mph
1012.6mb 79f 78f
9:50am 4ft 8s 6s 4
mph
1011.8mb 79f 77f
8:50am 4.5ft 8s 6s 4 7 mph 1011.5mb 79f 77f
7:50am 4.5ft 7s 6s 4
mph
1011.2mb 79f 77f
6:50am 5ft 8s 6s 2 4 mph 1011.1mb 79f 77f
5:50am 4.5ft 8s 6s 4 7 mph 1011.2mb 79f 77f
4:50am 5ft 7s 6s 7 9 mph 1011.9mb 79f 77f
3:50am 4.5ft 8s 6s 7 9 mph 1012.4mb 79f 76f
2:50am 5ft 7s 6s 4 7 mph 1012.4mb 79f 76f
1:50am 5ft 7s 5s 2 4 mph 1012.6mb 79f 75f
Wed 02/22 11:50pm 5.5ft 6s 5s 22 31 mph 1012mb 79f 73f
10:50pm 5.5ft 8s 6s 11 16 mph 1010.8mb 79f 75f
9:50pm 5.5ft 8s 5s 18 22 mph 1010.4mb 79f 76f
8:50pm 6ft 6s 5s 13 16 mph 1009.8mb 79f 79f
7:50pm 5.5ft 7s 5s 16 20 mph 1009.1mb 79f 79f
6:50pm 6ft 7s 5s 20 25 mph 1008.4mb 79f 78f
5:50pm 6ft 7s 5s 20 25 mph 1008.8mb 79f 76f
4:50pm 5.5ft 7s 5s 22 34 mph 1009mb 79f 78f
3:50pm 5.5ft 7s 5s 18 20 mph 1010.2mb 79f 76f
2:50pm 6ft 7s 5s 25 34 mph 1010.5mb 79f 79f
1:50pm 6ft 7s 5s 20 25 mph 1010.9mb 79f 79f
12:50pm 5.5ft 8s 6s 20 25 mph 1011mb 79f 79f
10:50am 5ft 7s 6s 18 22 mph 1009.9mb 79f 78f
9:50am 5ft 8s 5s 18 20 mph 1008.9mb 79f 78f
8:50am 5.5ft 8s 6s 16 20 mph 1008.6mb 79f 78f
7:50am 5ft 8s 5s 16 18 mph 1008.6mb 79f 78f
6:50am 5.5ft 10s 6s 16 20 mph 1009.2mb 79f 79f